Search for airport 
image banner adimage banner adimage banner ad
image banner ad

IA24 - Green Castle

Located in Oxford, United States

ICAO - IA24, IATA -

Data provided by Airmate  

General information

Coordinates: N41°45'18" W91°43'40"
Elevation is 750 feet MSL.
Magnetic variation is 02° East
View others Airports in Iowa

Operational data

Special qualification required
Current time UTC:
Current local time:
Weather at : KCID - The Eastern Iowa ( 14 km )
METAR: KCID 150952Z 00000KT 10SM CLR 16/11 A3007 RMK AO2 SLP178 T01560111
TAF: KCID 150530Z 1506/1606 36005KT P6SM SKC
View NOTAMs / SUP AIP / TFR affecting this airport [VIEW]
Communications frequencies: [VIEW]

Runways:

RWY identifierQFULength (ft)Width (ft)SurfaceLDA (ft)
NW400060OTHER
SE400060OTHER

Airport contact information

Address: Oxford United States

Other aviation service providers

Flight schools

Green Castle Aero Club

Green Castle Aero Club
gcaero@southslope.net+1(319)545-2101

Satellite view of IA24